createdAt,value
2019-02-04T00:01:49.520Z,88.60
2019-02-04T00:04:18.393Z,88.42
2019-02-04T00:06:47.130Z,88.42
2019-02-04T00:09:15.899Z,88.19
2019-02-04T00:11:44.548Z,88.02
2019-02-04T00:14:13.142Z,88.26
2019-02-04T00:16:41.840Z,87.96
2019-02-04T00:19:10.606Z,87.94
2019-02-04T00:21:39.314Z,89.07
2019-02-04T00:24:27.163Z,89.41
2019-02-04T00:26:55.811Z,88.74
2019-02-04T00:29:24.485Z,89.11
2019-02-04T00:31:53.123Z,89.32
2019-02-04T00:34:21.763Z,90.37
2019-02-04T00:36:50.403Z,89.87
2019-02-04T00:39:20.726Z,90.17
2019-02-04T00:41:49.355Z,91.06
2019-02-04T00:44:17.974Z,91.46
2019-02-04T00:46:52.359Z,91.33
2019-02-04T00:49:16.975Z,91.65
2019-02-04T00:51:45.607Z,91.52
2019-02-04T00:54:15.967Z,91.65
2019-02-04T00:56:44.599Z,91.72
2019-02-04T00:59:13.204Z,92.02
2019-02-04T01:01:41.936Z,92.35
2019-02-04T01:04:10.639Z,92.54
2019-02-04T01:06:39.393Z,92.27
2019-02-04T01:12:24.546Z,92.23
2019-02-04T01:14:53.324Z,91.94
2019-02-04T01:17:21.948Z,91.82
2019-02-04T01:19:50.555Z,91.94
2019-02-04T01:22:19.188Z,92.04
2019-02-04T01:24:48.294Z,93.24
2019-02-04T01:27:18.172Z,93.18
2019-02-04T01:29:48.563Z,93.47
2019-02-04T01:32:17.178Z,93.62
2019-02-04T01:34:45.849Z,93.21
2019-02-04T01:37:14.502Z,93.53
2019-02-04T01:39:43.128Z,93.79
2019-02-04T01:42:11.774Z,94.13
2019-02-04T01:44:42.132Z,94.09
2019-02-04T01:47:14.694Z,94.24
2019-02-04T01:49:41.150Z,93.96
2019-02-04T01:52:09.834Z,94.44
2019-02-04T01:54:57.701Z,95.49
2019-02-04T01:57:26.339Z,96.07
2019-02-04T01:59:55.011Z,96.49
2019-02-04T02:02:23.728Z,96.41
2019-02-04T02:04:52.439Z,96.49
2019-02-04T02:07:21.045Z,96.86
2019-02-04T02:09:51.489Z,96.68
2019-02-04T02:12:20.109Z,96.77
2019-02-04T02:14:48.775Z,96.91
2019-02-04T02:17:25.950Z,96.73
2019-02-04T02:19:47.783Z,96.81
2019-02-04T02:22:16.446Z,96.74
2019-02-04T02:24:45.088Z,96.47
2019-02-04T02:27:13.704Z,96.28
2019-02-04T02:29:42.462Z,96.17
2019-02-04T02:32:11.121Z,96.16
2019-02-04T02:34:39.731Z,95.93
2019-02-04T02:37:08.452Z,95.73
2019-02-04T02:39:37.226Z,95.62
2019-02-04T02:42:05.900Z,95.41
2019-02-04T02:44:34.540Z,95.44
2019-02-04T02:47:03.213Z,96.30
2019-02-04T02:49:31.862Z,96.55
2019-02-04T02:52:00.461Z,96.95
2019-02-04T02:54:30.938Z,97.18
2019-02-04T02:56:59.543Z,97.63
2019-02-04T02:59:28.152Z,98.01
2019-02-04T03:01:56.756Z,98.09
2019-02-04T03:04:25.404Z,98.60
2019-02-04T03:06:53.993Z,98.81
2019-02-04T03:09:22.723Z,98.73
2019-02-04T03:11:51.335Z,98.97
2019-02-04T03:14:19.965Z,99.15
2019-02-04T03:16:48.648Z,99.25
2019-02-04T03:19:17.346Z,99.40
2019-02-04T03:21:45.967Z,99.80
2019-02-04T03:24:16.334Z,100.00
2019-02-04T03:26:45.020Z,100.00
2019-02-04T03:29:13.715Z,100.00
2019-02-04T03:31:45.764Z,100.00
2019-02-04T03:34:12.733Z,100.00
2019-02-04T03:36:41.348Z,100.00
2019-02-04T03:39:11.694Z,100.00
2019-02-04T03:41:40.302Z,100.00
2019-02-04T03:44:09.006Z,100.00
2019-02-04T03:46:37.653Z,100.00
2019-02-04T03:49:06.443Z,100.00
2019-02-04T03:51:35.058Z,100.00
2019-02-04T03:54:03.838Z,100.00
2019-02-04T03:56:32.457Z,100.00
2019-02-04T03:59:01.173Z,100.00
2019-02-04T04:01:29.880Z,100.00
2019-02-04T04:03:58.556Z,99.79
2019-02-04T04:06:27.183Z,99.26
2019-02-04T04:08:55.813Z,98.85
2019-02-04T04:11:24.486Z,98.57
2019-02-04T04:13:53.164Z,98.07
2019-02-04T04:16:21.817Z,97.80
2019-02-04T04:18:50.435Z,97.58
2019-02-04T04:21:20.780Z,97.39
2019-02-04T04:23:49.410Z,97.29
2019-02-04T04:26:18.106Z,97.02
2019-02-04T04:28:46.712Z,96.92
2019-02-04T04:31:15.368Z,97.13
2019-02-04T04:33:43.967Z,97.26
2019-02-04T04:36:12.593Z,97.25
2019-02-04T04:38:42.929Z,97.16
2019-02-04T04:41:11.565Z,97.46
2019-02-04T04:43:40.169Z,97.59
2019-02-04T04:46:08.808Z,97.53
2019-02-04T04:48:37.438Z,97.48
2019-02-04T04:51:06.062Z,97.41
2019-02-04T04:53:36.442Z,97.27
2019-02-04T04:56:44.940Z,97.42
2019-02-04T04:59:13.813Z,98.22
2019-02-04T05:01:42.433Z,99.12
2019-02-04T05:04:11.121Z,99.30
2019-02-04T05:06:39.756Z,99.36
2019-02-04T05:09:08.441Z,99.30
2019-02-04T05:11:37.079Z,98.96
2019-02-04T05:14:05.766Z,98.52
2019-02-04T05:16:34.404Z,98.33
2019-02-04T05:19:03.072Z,98.47
2019-02-04T05:21:31.689Z,98.86
2019-02-04T05:24:00.401Z,98.91
2019-02-04T05:26:29.044Z,99.17
2019-02-04T05:28:57.652Z,99.22
2019-02-04T05:31:26.406Z,98.95
2019-02-04T05:33:55.033Z,99.02
2019-02-04T05:36:23.736Z,98.94
2019-02-04T05:38:52.373Z,98.93
2019-02-04T05:41:21.005Z,98.74
2019-02-04T05:43:49.631Z,98.52
2019-02-04T05:46:18.246Z,98.64
2019-02-04T05:48:49.383Z,98.56
2019-02-04T05:51:17.319Z,98.52
2019-02-04T05:53:45.948Z,98.54
2019-02-04T05:56:14.628Z,98.21
2019-02-04T05:58:43.321Z,98.05
2019-02-04T06:01:11.922Z,98.11
2019-02-04T06:03:40.552Z,97.83
2019-02-04T06:06:09.262Z,97.80
2019-02-04T06:08:37.928Z,97.75
2019-02-04T06:11:06.632Z,97.77
2019-02-04T06:13:35.580Z,97.97
2019-02-04T06:16:04.465Z,98.02
2019-02-04T06:18:33.084Z,98.24
2019-02-04T06:21:01.748Z,98.17
2019-02-04T06:23:30.498Z,98.08
2019-02-04T06:25:59.123Z,98.06
2019-02-04T06:28:27.854Z,97.81
2019-02-04T06:30:58.246Z,97.79
2019-02-04T06:33:26.918Z,97.93
2019-02-04T06:35:55.998Z,98.22
2019-02-04T06:38:24.584Z,99.00
2019-02-04T06:40:53.317Z,99.62
2019-02-04T06:43:21.951Z,100.00
2019-02-04T06:45:51.016Z,100.00
2019-02-04T06:48:19.928Z,100.00
2019-02-04T06:50:50.934Z,100.00
2019-02-04T06:53:18.974Z,100.00
2019-02-04T06:55:47.748Z,100.00
2019-02-04T06:58:16.385Z,100.00
2019-02-04T07:00:46.800Z,100.00
2019-02-04T07:03:15.467Z,100.00
2019-02-04T07:05:44.259Z,100.00
2019-02-04T07:08:12.892Z,100.00
2019-02-04T07:10:41.517Z,100.00
2019-02-04T07:13:10.269Z,100.00
2019-02-04T07:15:40.637Z,100.00
2019-02-04T07:18:09.281Z,100.00
2019-02-04T07:20:38.078Z,100.00
2019-02-04T07:23:06.794Z,100.00
2019-02-04T07:25:35.446Z,100.00
2019-02-04T07:28:04.173Z,100.00
2019-02-04T07:30:34.535Z,100.00
2019-02-04T07:33:03.352Z,100.00
2019-02-04T07:35:32.039Z,100.00
2019-02-04T07:41:02.710Z,100.00
2019-02-04T07:43:31.527Z,100.00
2019-02-04T07:46:00.132Z,100.00
2019-02-04T07:48:28.901Z,100.00
2019-02-04T07:50:57.521Z,100.00
2019-02-04T07:53:26.241Z,100.00
2019-02-04T07:55:55.100Z,99.72
2019-02-04T07:58:23.737Z,99.53
2019-02-04T08:00:52.394Z,99.79
2019-02-04T08:03:21.022Z,99.80
2019-02-04T08:05:49.839Z,99.58
2019-02-04T08:08:37.699Z,99.43
2019-02-04T08:11:06.356Z,99.23
2019-02-04T08:13:35.025Z,99.13
2019-02-04T08:16:03.824Z,99.08
2019-02-04T08:18:32.432Z,99.15
2019-02-04T08:21:16.264Z,99.25
2019-02-04T08:23:45.215Z,99.29
2019-02-04T08:26:13.848Z,99.13
2019-02-04T08:28:42.471Z,99.17
2019-02-04T08:31:11.098Z,99.31
2019-02-04T08:33:39.919Z,99.62
2019-02-04T08:36:08.726Z,100.00
2019-02-04T08:38:37.382Z,100.00
2019-02-04T08:41:06.081Z,100.00
2019-02-04T08:43:34.750Z,100.00
2019-02-04T08:46:03.499Z,100.00
2019-02-04T08:48:32.170Z,100.00
2019-02-04T08:51:00.941Z,99.68
2019-02-04T08:53:29.651Z,99.71
2019-02-04T08:55:58.354Z,99.50
2019-02-04T08:58:26.985Z,99.45
2019-02-04T09:00:55.822Z,99.21
2019-02-04T09:03:24.558Z,98.95
2019-02-04T09:05:53.281Z,98.68
2019-02-04T09:08:21.994Z,98.55
2019-02-04T09:10:50.710Z,98.32
2019-02-04T09:13:19.384Z,98.20
2019-02-04T09:15:48.119Z,98.09
2019-02-04T09:18:16.853Z,97.94
2019-02-04T09:20:45.548Z,97.83
2019-02-04T09:23:15.907Z,97.69
2019-02-04T09:25:44.666Z,97.23
2019-02-04T09:28:13.287Z,96.72
2019-02-04T09:30:42.010Z,96.76
2019-02-04T09:33:10.700Z,96.54
2019-02-04T09:35:39.334Z,96.26
2019-02-04T09:38:08.083Z,96.16
2019-02-04T09:40:42.220Z,95.90
2019-02-04T09:43:11.591Z,95.47
2019-02-04T09:45:41.691Z,95.39
2019-02-04T09:50:57.337Z,94.49
2019-02-04T09:53:26.086Z,94.88
2019-02-04T09:55:56.960Z,94.70
2019-02-04T09:58:25.152Z,93.87
2019-02-04T10:00:53.822Z,94.04
2019-02-04T10:03:22.534Z,93.64
2019-02-04T10:05:51.265Z,93.31
2019-02-04T10:08:19.895Z,93.34
2019-02-04T10:10:48.639Z,93.13
2019-02-04T10:13:17.356Z,93.29
2019-02-04T10:15:46.279Z,93.19
2019-02-04T10:18:16.453Z,93.57
2019-02-04T10:20:45.254Z,93.71
2019-02-04T10:23:13.946Z,93.52
2019-02-04T10:25:43.054Z,93.21
2019-02-04T10:28:12.678Z,92.82
2019-02-04T10:30:41.378Z,92.24
2019-02-04T10:33:49.775Z,91.74
2019-02-04T10:36:18.469Z,91.62
2019-02-04T10:38:47.124Z,91.45
2019-02-04T10:41:17.451Z,90.96
2019-02-04T10:43:46.112Z,90.23
2019-02-04T10:46:14.757Z,89.19
2019-02-04T10:48:43.402Z,89.78
2019-02-04T10:51:12.351Z,89.64
2019-02-04T10:53:42.565Z,89.08
2019-02-04T10:56:13.091Z,88.72
2019-02-04T10:58:41.765Z,88.77
2019-02-04T11:01:10.458Z,87.39
2019-02-04T11:03:39.225Z,87.71
2019-02-04T11:06:08.057Z,87.32
2019-02-04T11:08:36.703Z,86.95
2019-02-04T11:11:07.146Z,86.48
2019-02-04T11:13:35.835Z,86.41
2019-02-04T11:16:04.561Z,86.21
2019-02-04T11:18:33.166Z,85.90
2019-02-04T11:21:01.911Z,86.10
2019-02-04T11:23:30.546Z,86.09
2019-02-04T11:26:00.963Z,84.70
2019-02-04T11:28:29.686Z,84.64
2019-02-04T11:31:17.557Z,84.59
2019-02-04T11:33:46.341Z,84.46
2019-02-04T11:36:14.935Z,84.32
2019-02-04T11:38:43.601Z,83.16
2019-02-04T11:41:12.244Z,82.75
2019-02-04T11:43:40.916Z,82.79
2019-02-04T11:46:09.664Z,82.55
2019-02-04T11:48:38.327Z,82.49
2019-02-04T11:51:09.714Z,82.17
2019-02-04T11:53:37.484Z,82.28
2019-02-04T11:56:06.188Z,81.96
2019-02-04T11:58:34.896Z,81.58
2019-02-04T12:01:03.660Z,81.27
2019-02-04T12:03:32.498Z,81.14
2019-02-04T12:06:01.103Z,80.91
2019-02-04T12:08:29.921Z,79.57
2019-02-04T12:11:18.763Z,79.49
2019-02-04T12:13:47.397Z,79.21
2019-02-04T12:16:16.092Z,79.70
2019-02-04T12:18:46.563Z,79.35
2019-02-04T12:21:21.538Z,79.04
2019-02-04T12:23:45.645Z,78.94
2019-02-04T12:26:14.375Z,79.41
2019-02-04T12:28:43.011Z,78.95
2019-02-04T12:31:11.748Z,78.37
2019-02-04T12:33:42.227Z,78.90
2019-02-04T12:36:10.884Z,79.16
2019-02-04T12:38:39.498Z,78.91
2019-02-04T12:41:08.185Z,78.95
2019-02-04T12:46:50.813Z,77.69
2019-02-04T12:49:20.041Z,77.45
2019-02-04T12:51:49.998Z,76.27
2019-02-04T12:54:20.366Z,76.74
2019-02-04T12:56:49.012Z,76.40
2019-02-04T12:59:17.696Z,77.06
2019-02-04T13:01:46.331Z,76.57
2019-02-04T13:04:15.021Z,75.44
2019-02-04T13:06:46.798Z,75.83
2019-02-04T13:09:14.196Z,76.27
2019-02-04T13:11:42.821Z,75.75
2019-02-04T13:14:11.586Z,75.08
2019-02-04T13:16:40.297Z,74.49
2019-02-04T13:19:08.936Z,72.67
2019-02-04T13:21:45.077Z,72.86
2019-02-04T13:24:07.973Z,71.07
2019-02-04T13:26:36.625Z,71.77
2019-02-04T13:29:05.399Z,70.84
2019-02-04T13:31:34.066Z,70.52
2019-02-04T13:34:02.735Z,70.65
2019-02-04T13:36:31.358Z,67.57
2019-02-04T13:39:01.695Z,68.21
2019-02-04T13:41:30.360Z,67.44
2019-02-04T13:43:58.990Z,66.01
2019-02-04T13:46:27.674Z,66.16
2019-02-04T13:48:56.354Z,66.46
2019-02-04T13:51:24.991Z,65.86
2019-02-04T13:53:57.301Z,64.92
2019-02-04T13:56:25.861Z,63.99
2019-02-04T13:58:54.501Z,63.92
2019-02-04T14:01:23.284Z,64.00
2019-02-04T14:03:51.958Z,63.09
2019-02-04T14:06:20.689Z,63.52
2019-02-04T14:08:51.088Z,64.15
2019-02-04T14:11:19.760Z,63.82
2019-02-04T14:13:48.400Z,64.34
2019-02-04T14:16:17.111Z,64.30
2019-02-04T14:18:45.753Z,63.64
2019-02-04T14:21:14.442Z,63.02
2019-02-04T14:23:43.240Z,60.78
2019-02-04T14:26:11.955Z,62.32
2019-02-04T14:28:40.628Z,63.60
2019-02-04T14:31:09.231Z,63.45
2019-02-04T14:33:37.839Z,63.06
2019-02-04T14:36:06.603Z,63.03
2019-02-04T14:38:35.365Z,62.55
2019-02-04T14:41:04.121Z,61.46
2019-02-04T14:43:36.500Z,62.46
2019-02-04T14:46:43.599Z,62.85
2019-02-04T14:49:50.703Z,63.56
2019-02-04T14:52:57.821Z,64.17
2019-02-04T14:56:04.911Z,63.55
2019-02-04T14:59:12.025Z,63.39
2019-02-04T15:02:19.122Z,62.97
2019-02-04T15:05:26.508Z,63.80
2019-02-04T15:08:33.714Z,64.49
2019-02-04T15:11:40.836Z,64.76
2019-02-04T15:14:33.215Z,65.80
2019-02-04T15:17:40.333Z,64.68
2019-02-04T15:20:47.440Z,65.38
2019-02-04T15:23:54.552Z,64.73
2019-02-04T15:27:01.652Z,65.12
2019-02-04T15:29:52.451Z,65.75
2019-02-04T15:32:59.684Z,64.87
2019-02-04T15:36:06.781Z,65.14
2019-02-04T15:39:13.908Z,65.58
2019-02-04T15:42:32.014Z,64.38
2019-02-04T15:45:29.862Z,65.43
2019-02-04T15:48:20.017Z,65.98
2019-02-04T15:51:27.157Z,64.77
2019-02-04T15:53:56.540Z,65.25
2019-02-04T15:56:25.223Z,65.78
2019-02-04T15:58:53.890Z,65.46
2019-02-04T16:01:22.494Z,65.15
2019-02-04T16:03:51.102Z,65.48
2019-02-04T16:06:19.764Z,65.61
2019-02-04T16:08:50.116Z,65.59
2019-02-04T16:11:18.730Z,66.54
2019-02-04T16:13:47.344Z,66.78
2019-02-04T16:16:15.968Z,66.14
2019-02-04T16:18:44.613Z,65.36
2019-02-04T16:21:13.319Z,67.01
2019-02-04T16:23:43.667Z,67.16
2019-02-04T16:26:15.118Z,66.41
2019-02-04T16:28:43.005Z,65.76
2019-02-04T16:31:11.669Z,67.53
2019-02-04T16:33:40.296Z,66.89
2019-02-04T16:36:08.994Z,67.97
2019-02-04T16:38:39.510Z,68.57
2019-02-04T16:41:08.196Z,68.08
2019-02-04T16:43:36.859Z,68.52
2019-02-04T16:46:05.609Z,68.74
2019-02-04T16:48:34.234Z,67.91
2019-02-04T16:51:11.294Z,67.58
2019-02-04T16:53:33.338Z,67.96
2019-02-04T16:56:01.965Z,68.30
2019-02-04T16:58:30.665Z,68.52
2019-02-04T17:00:59.296Z,68.56
2019-02-04T17:03:46.991Z,69.40
2019-02-04T17:06:34.852Z,69.30
2019-02-04T17:10:21.031Z,71.07
2019-02-04T17:12:49.720Z,71.20
2019-02-04T17:15:18.475Z,71.39
2019-02-04T17:17:47.345Z,71.99
2019-02-04T17:20:19.010Z,71.96
2019-02-04T17:22:47.670Z,72.02
2019-02-04T17:25:16.294Z,72.50
2019-02-04T17:27:45.060Z,72.55
2019-02-04T17:30:16.591Z,72.93
2019-02-04T17:32:45.261Z,72.72
2019-02-04T17:35:53.695Z,72.24
2019-02-04T17:38:22.709Z,73.31
2019-02-04T17:40:51.323Z,74.47
2019-02-04T17:46:21.966Z,73.83
2019-02-04T17:48:50.743Z,74.06
2019-02-04T17:51:19.353Z,74.98
2019-02-04T17:53:47.999Z,74.39
2019-02-04T17:56:16.771Z,74.69
2019-02-04T17:58:45.421Z,74.93
2019-02-04T18:04:03.501Z,75.57
2019-02-04T18:09:09.125Z,75.25
2019-02-04T18:11:39.522Z,75.70
2019-02-04T18:14:08.220Z,75.36
2019-02-04T18:16:36.907Z,75.93
2019-02-04T18:19:05.702Z,76.82
2019-02-04T18:21:34.311Z,77.10
2019-02-04T18:24:02.947Z,77.07
2019-02-04T18:26:31.578Z,77.02
2019-02-04T18:29:00.192Z,77.60
2019-02-04T18:31:28.916Z,77.57
2019-02-04T18:33:59.349Z,77.77
2019-02-04T18:36:28.027Z,77.96
2019-02-04T18:38:58.452Z,77.90
2019-02-04T18:41:27.129Z,78.24
2019-02-04T18:43:55.755Z,78.48
2019-02-04T18:46:24.394Z,79.14
2019-02-04T18:48:53.625Z,79.05
2019-02-04T18:51:22.713Z,78.59
2019-02-04T18:56:46.574Z,78.47
2019-02-04T19:02:18.034Z,78.75
2019-02-04T19:04:47.103Z,78.91
2019-02-04T19:07:16.074Z,79.05
2019-02-04T19:09:44.933Z,79.40
2019-02-04T19:12:40.647Z,79.39
2019-02-04T19:15:12.947Z,79.53
2019-02-04T19:17:41.794Z,79.69
2019-02-04T19:20:12.891Z,80.64
2019-02-04T19:22:41.868Z,80.93
2019-02-04T19:25:50.648Z,81.35
2019-02-04T19:28:19.780Z,81.39
2019-02-04T19:31:09.916Z,81.17
2019-02-04T19:33:38.847Z,81.52
2019-02-04T19:36:09.445Z,81.91
2019-02-04T19:38:40.589Z,81.95
2019-02-04T19:41:28.651Z,82.11
2019-02-04T19:43:57.634Z,82.84
2019-02-04T19:46:26.573Z,83.47
2019-02-04T19:48:55.445Z,83.29
2019-02-04T19:51:24.797Z,83.24
2019-02-04T19:53:55.944Z,83.15
2019-02-04T19:56:24.756Z,82.70
2019-02-04T20:02:15.542Z,83.30
2019-02-04T20:04:44.533Z,83.17
2019-02-04T20:07:13.785Z,83.26
2019-02-04T20:09:44.661Z,83.76
2019-02-04T20:12:13.766Z,83.87
2019-02-04T20:14:42.705Z,83.82
2019-02-04T20:17:11.587Z,83.88
2019-02-04T20:22:18.366Z,84.05
2019-02-04T20:25:07.334Z,84.18
2019-02-04T20:27:36.716Z,84.68
2019-02-04T20:30:08.794Z,84.76
2019-02-04T20:32:39.296Z,84.91
2019-02-04T20:35:10.365Z,84.86
2019-02-04T20:37:39.322Z,85.00
2019-02-04T20:40:51.792Z,84.86
2019-02-04T20:43:20.753Z,84.78
2019-02-04T20:45:49.865Z,84.88
2019-02-04T20:48:19.328Z,84.74
2019-02-04T20:50:48.803Z,84.71
2019-02-04T20:53:17.749Z,85.03
2019-02-04T20:55:46.745Z,84.79
2019-02-04T20:58:18.002Z,85.00
2019-02-04T21:00:48.947Z,85.10
2019-02-04T21:03:17.973Z,85.32
2019-02-04T21:06:05.826Z,85.59
2019-02-04T21:08:34.882Z,85.14
2019-02-04T21:11:03.879Z,85.37
2019-02-04T21:13:32.870Z,85.25
2019-02-04T21:16:01.763Z,84.90
2019-02-04T21:18:30.808Z,84.83
2019-02-04T21:21:01.573Z,83.71
2019-02-04T21:23:30.430Z,83.12
2019-02-04T21:25:59.508Z,82.75
2019-02-04T21:28:29.048Z,81.69
2019-02-04T21:30:58.286Z,82.36
2019-02-04T21:33:27.226Z,82.71
2019-02-04T21:35:57.969Z,83.23
2019-02-04T21:38:27.289Z,83.19
2019-02-04T21:40:56.542Z,82.00
2019-02-04T21:43:25.501Z,80.90
2019-02-04T21:45:54.673Z,80.51
2019-02-04T21:48:23.960Z,78.99
2019-02-04T21:50:54.903Z,79.23
2019-02-04T21:53:23.963Z,78.58
2019-02-04T21:55:53.110Z,77.53
2019-02-04T21:58:42.809Z,77.28
2019-02-04T22:01:12.270Z,78.29
2019-02-04T22:03:41.262Z,78.15
2019-02-04T22:06:29.343Z,78.50
2019-02-04T22:08:58.351Z,78.46
2019-02-04T22:11:28.056Z,78.50
2019-02-04T22:13:59.140Z,77.71
2019-02-04T22:16:28.463Z,77.72
2019-02-04T22:18:59.130Z,76.97
2019-02-04T22:21:28.083Z,77.46
2019-02-04T22:23:59.831Z,77.28
2019-02-04T22:26:28.653Z,77.64
2019-02-04T22:28:57.724Z,77.88
2019-02-04T22:31:26.452Z,77.78
2019-02-04T22:33:57.014Z,76.05
2019-02-04T22:36:28.014Z,76.08
2019-02-04T22:38:56.812Z,75.55
2019-02-04T22:41:25.499Z,75.31
2019-02-04T22:43:54.462Z,75.67
2019-02-04T22:46:23.360Z,76.25
2019-02-04T22:48:52.488Z,75.80
2019-02-04T22:51:21.325Z,76.10
2019-02-04T22:53:50.332Z,75.63
2019-02-04T22:56:19.183Z,75.43
2019-02-04T23:01:50.269Z,75.54
2019-02-04T23:04:19.150Z,76.22
2019-02-04T23:06:47.882Z,76.51
2019-02-04T23:09:16.631Z,76.87
2019-02-04T23:11:45.455Z,76.42
2019-02-04T23:14:14.774Z,76.54
2019-02-04T23:16:43.636Z,75.80
2019-02-04T23:22:10.734Z,76.99
2019-02-04T23:24:39.586Z,76.67
2019-02-04T23:27:08.391Z,76.12
2019-02-04T23:29:57.938Z,76.75
2019-02-04T23:32:26.677Z,76.23
2019-02-04T23:34:55.340Z,77.76
2019-02-04T23:37:23.958Z,76.89
2019-02-04T23:39:52.594Z,76.75
2019-02-04T23:42:21.281Z,75.70
2019-02-04T23:44:50.000Z,77.01
2019-02-04T23:47:18.643Z,76.78
2019-02-04T23:49:47.625Z,77.01
2019-02-04T23:54:58.066Z,77.12
2019-02-04T23:57:26.710Z,76.90
2019-02-04T23:59:55.361Z,76.73
